sensor_id;sensor_type;location;lat;lon;timestamp;pressure;altitude;pressure_sealevel;temperature;humidity
77171;BME280;66144;50.020;14.422;2023-07-08T00:02:13;99295.16;;;18.64;51.87
77171;BME280;66144;50.020;14.422;2023-07-08T00:04:39;99301.00;;;18.61;51.63
77171;BME280;66144;50.020;14.422;2023-07-08T00:07:05;99300.75;;;18.57;51.86
77171;BME280;66144;50.020;14.422;2023-07-08T00:09:31;99303.03;;;18.45;52.31
77171;BME280;66144;50.020;14.422;2023-07-08T00:11:56;99310.47;;;18.43;51.88
77171;BME280;66144;50.020;14.422;2023-07-08T00:14:25;99301.28;;;18.36;52.38
77171;BME280;66144;50.020;14.422;2023-07-08T00:16:51;99307.16;;;18.33;52.75
77171;BME280;66144;50.020;14.422;2023-07-08T00:19:16;99316.72;;;18.28;52.28
77171;BME280;66144;50.020;14.422;2023-07-08T00:21:45;99305.28;;;18.33;52.10
77171;BME280;66144;50.020;14.422;2023-07-08T00:24:11;99306.44;;;18.03;53.26
77171;BME280;66144;50.020;14.422;2023-07-08T00:26:37;99313.19;;;18.14;53.19
77171;BME280;66144;50.020;14.422;2023-07-08T00:29:03;99317.97;;;18.12;53.50
77171;BME280;66144;50.020;14.422;2023-07-08T00:31:28;99314.09;;;18.05;52.97
77171;BME280;66144;50.020;14.422;2023-07-08T00:33:57;99314.09;;;18.05;54.08
77171;BME280;66144;50.020;14.422;2023-07-08T00:36:24;99315.22;;;17.99;54.21
77171;BME280;66144;50.020;14.422;2023-07-08T00:38:50;99314.69;;;17.97;54.67
77171;BME280;66144;50.020;14.422;2023-07-08T00:41:35;99317.38;;;17.91;54.47
77171;BME280;66144;50.020;14.422;2023-07-08T00:44:03;99319.16;;;17.72;54.59
77171;BME280;66144;50.020;14.422;2023-07-08T00:51:35;99319.44;;;17.71;54.03
77171;BME280;66144;50.020;14.422;2023-07-08T00:54:03;99321.81;;;17.72;54.06
77171;BME280;66144;50.020;14.422;2023-07-08T00:56:33;99316.31;;;17.69;55.16
77171;BME280;66144;50.020;14.422;2023-07-08T00:59:03;99318.16;;;17.68;55.40
77171;BME280;66144;50.020;14.422;2023-07-08T01:01:33;99320.31;;;17.61;54.93
77171;BME280;66144;50.020;14.422;2023-07-08T01:04:05;99312.97;;;17.53;55.26
77171;BME280;66144;50.020;14.422;2023-07-08T01:06:34;99314.34;;;17.50;55.13
77171;BME280;66144;50.020;14.422;2023-07-08T01:09:06;99312.28;;;17.42;55.46
77171;BME280;66144;50.020;14.422;2023-07-08T01:11:33;99315.75;;;17.38;56.20
77171;BME280;66144;50.020;14.422;2023-07-08T01:14:00;99319.44;;;17.37;56.27
77171;BME280;66144;50.020;14.422;2023-07-08T01:16:27;99322.91;;;17.32;55.87
77171;BME280;66144;50.020;14.422;2023-07-08T01:18:53;99309.44;;;17.34;55.95
77171;BME280;66144;50.020;14.422;2023-07-08T01:21:34;99315.09;;;17.22;56.30
77171;BME280;66144;50.020;14.422;2023-07-08T01:24:03;99313.75;;;17.24;56.47
77171;BME280;66144;50.020;14.422;2023-07-08T01:26:31;99302.66;;;17.22;56.53
77171;BME280;66144;50.020;14.422;2023-07-08T01:28:58;99305.41;;;17.12;56.97
77171;BME280;66144;50.020;14.422;2023-07-08T01:31:24;99301.91;;;17.17;57.04
77171;BME280;66144;50.020;14.422;2023-07-08T01:33:51;99298.22;;;17.18;57.13
77171;BME280;66144;50.020;14.422;2023-07-08T01:36:17;99296.19;;;17.05;57.78
77171;BME280;66144;50.020;14.422;2023-07-08T01:38:44;99292.81;;;16.99;57.07
77171;BME280;66144;50.020;14.422;2023-07-08T01:41:15;99297.03;;;16.95;57.43
77171;BME280;66144;50.020;14.422;2023-07-08T01:43:41;99299.66;;;17.00;58.17
77171;BME280;66144;50.020;14.422;2023-07-08T01:46:13;99295.97;;;17.01;57.34
77171;BME280;66144;50.020;14.422;2023-07-08T01:48:40;99286.69;;;16.65;58.56
77171;BME280;66144;50.020;14.422;2023-07-08T01:51:07;99284.50;;;16.77;58.82
77171;BME280;66144;50.020;14.422;2023-07-08T01:53:35;99286.06;;;16.78;58.52
77171;BME280;66144;50.020;14.422;2023-07-08T01:56:00;99285.56;;;16.76;58.84
77171;BME280;66144;50.020;14.422;2023-07-08T01:58:26;99288.25;;;16.71;58.80
77171;BME280;66144;50.020;14.422;2023-07-08T02:00:53;99287.72;;;16.69;58.84
77171;BME280;66144;50.020;14.422;2023-07-08T02:03:19;99290.88;;;16.71;58.40
77171;BME280;66144;50.020;14.422;2023-07-08T02:05:45;99285.06;;;16.74;58.53
77171;BME280;66144;50.020;14.422;2023-07-08T02:08:10;99290.38;;;16.64;58.84
77171;BME280;66144;50.020;14.422;2023-07-08T02:10:38;99286.41;;;16.61;58.88
77171;BME280;66144;50.020;14.422;2023-07-08T02:13:03;99290.91;;;16.66;59.23
77171;BME280;66144;50.020;14.422;2023-07-08T02:15:29;99286.16;;;16.63;58.95
77171;BME280;66144;50.020;14.422;2023-07-08T02:17:55;99280.63;;;16.64;59.37
77171;BME280;66144;50.020;14.422;2023-07-08T02:20:20;99284.84;;;16.65;58.94
77171;BME280;66144;50.020;14.422;2023-07-08T02:22:45;99278.06;;;16.49;59.45
77171;BME280;66144;50.020;14.422;2023-07-08T02:25:11;99284.41;;;16.38;59.74
77171;BME280;66144;50.020;14.422;2023-07-08T02:27:37;99277.63;;;16.32;59.86
77171;BME280;66144;50.020;14.422;2023-07-08T02:30:03;99283.16;;;16.25;60.66
77171;BME280;66144;50.020;14.422;2023-07-08T02:32:28;99282.63;;;16.33;59.97
77171;BME280;66144;50.020;14.422;2023-07-08T02:34:54;99278.16;;;16.29;59.90
77171;BME280;66144;50.020;14.422;2023-07-08T02:37:19;99285.81;;;16.25;60.92
77171;BME280;66144;50.020;14.422;2023-07-08T02:39:44;99276.31;;;16.24;59.91
77171;BME280;66144;50.020;14.422;2023-07-08T02:42:10;99270.53;;;16.17;60.22
77171;BME280;66144;50.020;14.422;2023-07-08T02:44:35;99273.16;;;16.22;60.62
77171;BME280;66144;50.020;14.422;2023-07-08T02:47:01;99275.28;;;16.20;60.69
77171;BME280;66144;50.020;14.422;2023-07-08T02:49:26;99275.59;;;16.03;61.24
77171;BME280;66144;50.020;14.422;2023-07-08T02:51:54;99273.47;;;16.10;61.08
77171;BME280;66144;50.020;14.422;2023-07-08T02:54:19;99277.16;;;16.09;60.46
77171;BME280;66144;50.020;14.422;2023-07-08T02:56:44;99279.00;;;16.09;60.87
77171;BME280;66144;50.020;14.422;2023-07-08T02:59:10;99281.13;;;16.02;60.95
77171;BME280;66144;50.020;14.422;2023-07-08T03:01:35;99283.78;;;16.02;60.78
77171;BME280;66144;50.020;14.422;2023-07-08T03:04:07;99273.59;;;15.75;62.07
77171;BME280;66144;50.020;14.422;2023-07-08T03:06:34;99282.22;;;15.91;61.51
77171;BME280;66144;50.020;14.422;2023-07-08T03:09:00;99288.56;;;15.89;61.61
77171;BME280;66144;50.020;14.422;2023-07-08T03:11:25;99281.72;;;15.88;61.59
77171;BME280;66144;50.020;14.422;2023-07-08T03:13:50;99284.09;;;15.85;61.75
77171;BME280;66144;50.020;14.422;2023-07-08T03:16:16;99280.13;;;15.82;62.52
77171;BME280;66144;50.020;14.422;2023-07-08T03:18:41;99283.81;;;15.81;62.13
77171;BME280;66144;50.020;14.422;2023-07-08T03:21:15;99283.56;;;15.83;61.74
77171;BME280;66144;50.020;14.422;2023-07-08T03:23:41;99285.16;;;15.79;62.76
77171;BME280;66144;50.020;14.422;2023-07-08T03:26:07;99293.03;;;15.84;62.54
77171;BME280;66144;50.020;14.422;2023-07-08T03:28:33;99297.00;;;15.81;62.59
77171;BME280;66144;50.020;14.422;2023-07-08T03:30:58;99303.84;;;15.82;62.38
77171;BME280;66144;50.020;14.422;2023-07-08T03:33:24;99303.84;;;15.82;62.40
77171;BME280;66144;50.020;14.422;2023-07-08T03:35:50;99304.91;;;15.81;62.82
77171;BME280;66144;50.020;14.422;2023-07-08T03:38:15;99302.28;;;15.76;62.88
77171;BME280;66144;50.020;14.422;2023-07-08T03:40:41;99294.88;;;15.78;62.95
77171;BME280;66144;50.020;14.422;2023-07-08T03:43:06;99297.53;;;15.78;62.69
77171;BME280;66144;50.020;14.422;2023-07-08T03:45:32;99304.41;;;15.64;63.56
77171;BME280;66144;50.020;14.422;2023-07-08T03:47:57;99307.56;;;15.76;63.18
77171;BME280;66144;50.020;14.422;2023-07-08T03:50:25;99305.44;;;15.78;63.38
77171;BME280;66144;50.020;14.422;2023-07-08T03:52:52;99315.44;;;15.81;63.48
77171;BME280;66144;50.020;14.422;2023-07-08T03:55:19;99310.94;;;15.82;63.64
77171;BME280;66144;50.020;14.422;2023-07-08T03:57:44;99329.94;;;15.74;63.38
77171;BME280;66144;50.020;14.422;2023-07-08T04:00:11;99332.56;;;15.79;63.57
77171;BME280;66144;50.020;14.422;2023-07-08T04:02:43;99326.22;;;15.85;63.41
77171;BME280;66144;50.020;14.422;2023-07-08T04:05:16;99330.19;;;15.93;63.33
77171;BME280;66144;50.020;14.422;2023-07-08T04:07:42;99332.03;;;15.92;63.20
77171;BME280;66144;50.020;14.422;2023-07-08T04:10:09;99335.97;;;15.95;63.12
77171;BME280;66144;50.020;14.422;2023-07-08T04:12:34;99338.63;;;15.95;63.52
77171;BME280;66144;50.020;14.422;2023-07-08T04:15:00;99334.09;;;16.05;63.28
77171;BME280;66144;50.020;14.422;2023-07-08T04:17:26;99334.88;;;16.06;63.93
77171;BME280;66144;50.020;14.422;2023-07-08T04:19:51;99329.59;;;16.11;64.17
77171;BME280;66144;50.020;14.422;2023-07-08T04:22:17;99327.22;;;16.14;64.43
77171;BME280;66144;50.020;14.422;2023-07-08T04:24:43;99333.81;;;16.12;63.94
77171;BME280;66144;50.020;14.422;2023-07-08T04:27:16;99329.81;;;16.19;63.45
77171;BME280;66144;50.020;14.422;2023-07-08T04:29:42;99340.09;;;16.21;63.99
77171;BME280;66144;50.020;14.422;2023-07-08T04:32:08;99338.00;;;16.28;64.13
77171;BME280;66144;50.020;14.422;2023-07-08T04:34:33;99338.75;;;16.34;64.28
77171;BME280;66144;50.020;14.422;2023-07-08T04:36:59;99336.88;;;16.39;63.57
77171;BME280;66144;50.020;14.422;2023-07-08T04:39:24;99332.13;;;16.41;64.15
77171;BME280;66144;50.020;14.422;2023-07-08T04:41:50;99334.22;;;16.49;64.17
77171;BME280;66144;50.020;14.422;2023-07-08T04:44:16;99342.34;;;16.58;63.61
77171;BME280;66144;50.020;14.422;2023-07-08T04:49:16;99348.66;;;16.67;64.33
77171;BME280;66144;50.020;14.422;2023-07-08T04:51:42;99355.78;;;16.72;64.59
77171;BME280;66144;50.020;14.422;2023-07-08T04:54:08;99355.72;;;16.77;64.93
77171;BME280;66144;50.020;14.422;2023-07-08T04:56:42;99353.81;;;16.92;63.98
77171;BME280;66144;50.020;14.422;2023-07-08T04:59:09;99357.25;;;16.93;64.15
77171;BME280;66144;50.020;14.422;2023-07-08T05:01:37;99358.22;;;17.07;64.19
77171;BME280;66144;50.020;14.422;2023-07-08T05:04:03;99356.00;;;17.19;63.75
77171;BME280;66144;50.020;14.422;2023-07-08T05:06:30;99356.22;;;17.62;62.62
77171;BME280;66144;50.020;14.422;2023-07-08T05:08:57;99350.16;;;17.90;62.01
77171;BME280;66144;50.020;14.422;2023-07-08T05:11:22;99352.22;;;17.99;62.38
77171;BME280;66144;50.020;14.422;2023-07-08T05:13:48;99353.16;;;18.32;61.67
77171;BME280;66144;50.020;14.422;2023-07-08T05:16:13;99359.16;;;18.42;61.00
77171;BME280;66144;50.020;14.422;2023-07-08T05:18:39;99356.66;;;18.51;61.55
77171;BME280;66144;50.020;14.422;2023-07-08T05:21:04;99353.06;;;18.66;60.48
77171;BME280;66144;50.020;14.422;2023-07-08T05:23:30;99350.84;;;19.10;59.98
77171;BME280;66144;50.020;14.422;2023-07-08T05:26:00;99358.38;;;19.73;58.74
77171;BME280;66144;50.020;14.422;2023-07-08T05:28:25;99357.25;;;20.34;55.95
77171;BME280;66144;50.020;14.422;2023-07-08T05:30:54;99360.91;;;21.01;55.75
77171;BME280;66144;50.020;14.422;2023-07-08T05:33:21;99362.91;;;21.54;53.95
77171;BME280;66144;50.020;14.422;2023-07-08T05:35:46;99368.22;;;22.08;50.40
77171;BME280;66144;50.020;14.422;2023-07-08T05:38:12;99363.50;;;22.53;50.27
77171;BME280;66144;50.020;14.422;2023-07-08T05:40:37;99370.69;;;22.52;50.54
77171;BME280;66144;50.020;14.422;2023-07-08T05:43:03;99367.84;;;23.14;49.12
77171;BME280;66144;50.020;14.422;2023-07-08T05:45:28;99371.13;;;23.20;49.00
77171;BME280;66144;50.020;14.422;2023-07-08T05:47:54;99376.09;;;23.73;47.03
77171;BME280;66144;50.020;14.422;2023-07-08T05:50:19;99371.22;;;23.84;47.92
77171;BME280;66144;50.020;14.422;2023-07-08T05:52:44;99370.31;;;24.18;47.15
77171;BME280;66144;50.020;14.422;2023-07-08T05:55:10;99363.31;;;24.42;45.69
77171;BME280;66144;50.020;14.422;2023-07-08T05:57:35;99368.22;;;24.32;45.75
77171;BME280;66144;50.020;14.422;2023-07-08T06:00:01;99372.00;;;24.60;44.86
77171;BME280;66144;50.020;14.422;2023-07-08T06:02:26;99380.09;;;24.72;44.70
77171;BME280;66144;50.020;14.422;2023-07-08T06:04:51;99375.97;;;25.04;40.34
77171;BME280;66144;50.020;14.422;2023-07-08T06:07:17;99373.72;;;25.27;41.82
77171;BME280;66144;50.020;14.422;2023-07-08T06:09:43;99377.88;;;25.58;40.69
77171;BME280;66144;50.020;14.422;2023-07-08T06:12:09;99380.00;;;25.97;37.78
77171;BME280;66144;50.020;14.422;2023-07-08T06:14:34;99370.97;;;26.38;36.69
77171;BME280;66144;50.020;14.422;2023-07-08T06:16:59;99371.63;;;26.60;39.29
77171;BME280;66144;50.020;14.422;2023-07-08T06:19:25;99373.00;;;26.54;37.19
77171;BME280;66144;50.020;14.422;2023-07-08T06:21:53;99363.66;;;26.88;36.07
77171;BME280;66144;50.020;14.422;2023-07-08T06:24:18;99361.34;;;27.14;36.27
77171;BME280;66144;50.020;14.422;2023-07-08T06:26:43;99362.03;;;27.67;34.22
77171;BME280;66144;50.020;14.422;2023-07-08T06:29:09;99358.38;;;27.75;35.11
77171;BME280;66144;50.020;14.422;2023-07-08T06:31:34;99361.50;;;27.77;37.20
77171;BME280;66144;50.020;14.422;2023-07-08T06:34:00;99363.59;;;27.99;36.98
77171;BME280;66144;50.020;14.422;2023-07-08T06:36:26;99358.22;;;27.99;35.47
77171;BME280;66144;50.020;14.422;2023-07-08T06:38:52;99358.38;;;28.38;32.94
77171;BME280;66144;50.020;14.422;2023-07-08T06:41:17;99361.03;;;28.88;34.80
77171;BME280;66144;50.020;14.422;2023-07-08T06:43:43;99357.53;;;29.04;34.56
77171;BME280;66144;50.020;14.422;2023-07-08T06:46:08;99357.00;;;28.44;35.24
77171;BME280;66144;50.020;14.422;2023-07-08T06:48:34;99349.84;;;29.06;33.44
77171;BME280;66144;50.020;14.422;2023-07-08T06:50:59;99354.75;;;29.19;32.44
77171;BME280;66144;50.020;14.422;2023-07-08T06:53:25;99347.16;;;29.44;33.18
77171;BME280;66144;50.020;14.422;2023-07-08T06:55:50;99343.22;;;29.00;33.00
77171;BME280;66144;50.020;14.422;2023-07-08T06:58:16;99337.53;;;29.24;31.65
77171;BME280;66144;50.020;14.422;2023-07-08T07:00:43;99340.28;;;29.70;33.64
77171;BME280;66144;50.020;14.422;2023-07-08T07:03:09;99347.03;;;29.83;31.06
77171;BME280;66144;50.020;14.422;2023-07-08T07:05:34;99344.44;;;30.36;31.07
77171;BME280;66144;50.020;14.422;2023-07-08T07:08:00;99345.53;;;30.58;30.46
77171;BME280;66144;50.020;14.422;2023-07-08T07:10:25;99341.44;;;31.01;30.36
77171;BME280;66144;50.020;14.422;2023-07-08T07:12:51;99337.94;;;31.30;30.03
77171;BME280;66144;50.020;14.422;2023-07-08T07:15:16;99329.47;;;31.32;30.02
77171;BME280;66144;50.020;14.422;2023-07-08T07:17:41;99334.22;;;31.45;29.19
77171;BME280;66144;50.020;14.422;2023-07-08T07:20:08;99330.78;;;31.89;28.62
77171;BME280;66144;50.020;14.422;2023-07-08T07:22:34;99324.88;;;32.24;27.95
77171;BME280;66144;50.020;14.422;2023-07-08T07:25:00;99326.47;;;32.32;27.26
77171;BME280;66144;50.020;14.422;2023-07-08T07:27:25;99335.91;;;32.63;26.98
77171;BME280;66144;50.020;14.422;2023-07-08T07:29:51;99326.38;;;32.98;27.05
77171;BME280;66144;50.020;14.422;2023-07-08T07:32:18;99331.19;;;32.46;26.66
77171;BME280;66144;50.020;14.422;2023-07-08T07:34:48;99333.34;;;32.88;26.68
77171;BME280;66144;50.020;14.422;2023-07-08T07:37:14;99333.50;;;33.48;26.12
77171;BME280;66144;50.020;14.422;2023-07-08T07:39:41;99336.66;;;33.86;25.58
77171;BME280;66144;50.020;14.422;2023-07-08T07:42:07;99337.00;;;33.95;25.31
77171;BME280;66144;50.020;14.422;2023-07-08T07:44:33;99343.97;;;34.14;25.22
77171;BME280;66144;50.020;14.422;2023-07-08T07:46:58;99342.03;;;34.11;25.41
77171;BME280;66144;50.020;14.422;2023-07-08T07:49:23;99336.19;;;34.41;25.08
77171;BME280;66144;50.020;14.422;2023-07-08T07:51:49;99343.16;;;34.42;24.35
77171;BME280;66144;50.020;14.422;2023-07-08T07:54:15;99338.41;;;34.67;24.14
77171;BME280;66144;50.020;14.422;2023-07-08T07:56:40;99343.19;;;35.25;24.12
77171;BME280;66144;50.020;14.422;2023-07-08T07:59:05;99328.75;;;35.43;23.69
77171;BME280;66144;50.020;14.422;2023-07-08T08:01:31;99320.56;;;35.98;23.14
77171;BME280;66144;50.020;14.422;2023-07-08T08:03:56;99331.94;;;36.30;23.59
77171;BME280;66144;50.020;14.422;2023-07-08T08:06:22;99325.25;;;36.69;21.67
77171;BME280;66144;50.020;14.422;2023-07-08T08:08:48;99319.47;;;36.33;22.93
77171;BME280;66144;50.020;14.422;2023-07-08T08:11:14;99319.81;;;36.73;22.34
77171;BME280;66144;50.020;14.422;2023-07-08T08:13:40;99321.28;;;37.08;22.36
77171;BME280;66144;50.020;14.422;2023-07-08T08:16:05;99331.78;;;36.79;22.53
77171;BME280;66144;50.020;14.422;2023-07-08T08:18:31;99321.06;;;36.27;22.55
77171;BME280;66144;50.020;14.422;2023-07-08T08:20:56;99328.78;;;36.36;21.87
77171;BME280;66144;50.020;14.422;2023-07-08T08:23:22;99327.25;;;35.90;22.04
77171;BME280;66144;50.020;14.422;2023-07-08T08:25:47;99317.22;;;36.21;22.22
77171;BME280;66144;50.020;14.422;2023-07-08T08:28:13;99324.50;;;36.35;21.15
77171;BME280;66144;50.020;14.422;2023-07-08T08:30:38;99312.38;;;37.04;21.22
77171;BME280;66144;50.020;14.422;2023-07-08T08:33:04;99310.91;;;36.95;21.31
77171;BME280;66144;50.020;14.422;2023-07-08T08:35:30;99310.13;;;37.25;21.38
77171;BME280;66144;50.020;14.422;2023-07-08T08:37:55;99313.16;;;37.04;20.93
77171;BME280;66144;50.020;14.422;2023-07-08T08:40:21;99313.84;;;37.62;20.69
77171;BME280;66144;50.020;14.422;2023-07-08T08:42:56;99302.16;;;37.38;19.93
77171;BME280;66144;50.020;14.422;2023-07-08T08:45:22;99312.44;;;37.77;20.15
77171;BME280;66144;50.020;14.422;2023-07-08T08:47:54;99306.31;;;38.36;19.77
77171;BME280;66144;50.020;14.422;2023-07-08T08:52:57;99307.00;;;38.80;19.13
77171;BME280;66144;50.020;14.422;2023-07-08T08:55:24;99303.16;;;38.77;19.15
77171;BME280;66144;50.020;14.422;2023-07-08T09:05:34;99301.53;;;38.80;19.54
77171;BME280;66144;50.020;14.422;2023-07-08T09:08:05;99304.66;;;38.62;17.91
77171;BME280;66144;50.020;14.422;2023-07-08T09:10:51;99300.34;;;38.81;17.77
77171;BME280;66144;50.020;14.422;2023-07-08T09:13:25;99298.56;;;38.90;18.12
77171;BME280;66144;50.020;14.422;2023-07-08T09:16:07;99294.13;;;38.96;17.63
77171;BME280;66144;50.020;14.422;2023-07-08T09:18:50;99292.50;;;39.35;16.83
77171;BME280;66144;50.020;14.422;2023-07-08T09:21:27;99301.72;;;39.74;16.65
77171;BME280;66144;50.020;14.422;2023-07-08T09:23:56;99308.53;;;39.00;16.86
77171;BME280;66144;50.020;14.422;2023-07-08T09:26:28;99302.22;;;39.20;16.84
77171;BME280;66144;50.020;14.422;2023-07-08T09:28:55;99298.00;;;38.63;16.78
77171;BME280;66144;50.020;14.422;2023-07-08T09:31:27;99295.56;;;39.37;16.73
77171;BME280;66144;50.020;14.422;2023-07-08T09:36:42;99286.56;;;40.01;16.11
77171;BME280;66144;50.020;14.422;2023-07-08T09:39:18;99292.81;;;39.69;16.39
77171;BME280;66144;50.020;14.422;2023-07-08T09:41:46;99297.09;;;39.70;16.11
77171;BME280;66144;50.020;14.422;2023-07-08T09:44:24;99293.75;;;39.14;16.32
77171;BME280;66144;50.020;14.422;2023-07-08T09:46:55;99284.19;;;39.38;17.02
77171;BME280;66144;50.020;14.422;2023-07-08T09:49:28;99276.44;;;39.53;16.68
77171;BME280;66144;50.020;14.422;2023-07-08T09:51:56;99291.28;;;39.03;16.59
77171;BME280;66144;50.020;14.422;2023-07-08T09:54:22;99278.94;;;39.93;16.76
77171;BME280;66144;50.020;14.422;2023-07-08T09:59:28;99274.44;;;40.57;15.75
77171;BME280;66144;50.020;14.422;2023-07-08T10:01:54;99283.28;;;39.45;16.23
77171;BME280;66144;50.020;14.422;2023-07-08T10:04:21;99278.59;;;38.93;16.32
77171;BME280;66144;50.020;14.422;2023-07-08T10:06:47;99281.81;;;38.88;16.59
77171;BME280;66144;50.020;14.422;2023-07-08T10:09:19;99280.31;;;38.87;16.44
77171;BME280;66144;50.020;14.422;2023-07-08T10:11:55;99285.16;;;38.80;16.38
77171;BME280;66144;50.020;14.422;2023-07-08T10:14:45;99270.34;;;38.21;16.96
77171;BME280;66144;50.020;14.422;2023-07-08T10:17:15;99273.91;;;37.52;17.96
77171;BME280;66144;50.020;14.422;2023-07-08T10:19:41;99272.53;;;37.40;18.36
77171;BME280;66144;50.020;14.422;2023-07-08T10:28:20;99251.38;;;35.99;20.01
77171;BME280;66144;50.020;14.422;2023-07-08T10:31:11;99270.06;;;34.97;19.76
77171;BME280;66144;50.020;14.422;2023-07-08T10:33:50;99254.63;;;34.76;20.44
77171;BME280;66144;50.020;14.422;2023-07-08T10:37:27;99246.97;;;34.60;20.50
77171;BME280;66144;50.020;14.422;2023-07-08T10:42:10;99257.06;;;34.49;21.37
77171;BME280;66144;50.020;14.422;2023-07-08T10:47:37;99257.25;;;33.68;21.06
77171;BME280;66144;50.020;14.422;2023-07-08T10:50:15;99254.50;;;33.89;21.15
77171;BME280;66144;50.020;14.422;2023-07-08T11:08:00;99233.22;;;33.77;19.97
77171;BME280;66144;50.020;14.422;2023-07-08T11:10:34;99235.19;;;33.58;20.52
77171;BME280;66144;50.020;14.422;2023-07-08T11:13:18;99235.59;;;33.46;20.80
77171;BME280;66144;50.020;14.422;2023-07-08T11:18:50;99219.31;;;33.36;20.74
77171;BME280;66144;50.020;14.422;2023-07-08T11:21:26;99216.63;;;33.43;21.11
77171;BME280;66144;50.020;14.422;2023-07-08T11:24:04;99222.00;;;33.57;20.53
77171;BME280;66144;50.020;14.422;2023-07-08T11:26:41;99219.31;;;33.68;20.96
77171;BME280;66144;50.020;14.422;2023-07-08T11:29:38;99213.50;;;33.80;20.45
77171;BME280;66144;50.020;14.422;2023-07-08T11:32:05;99231.31;;;33.63;20.44
77171;BME280;66144;50.020;14.422;2023-07-08T11:34:34;99218.56;;;33.42;20.41
77171;BME280;66144;50.020;14.422;2023-07-08T11:37:01;99222.00;;;33.21;20.86
77171;BME280;66144;50.020;14.422;2023-07-08T11:42:03;99212.75;;;33.47;20.60
77171;BME280;66144;50.020;14.422;2023-07-08T11:44:30;99208.47;;;33.32;20.10
77171;BME280;66144;50.020;14.422;2023-07-08T11:46:55;99200.75;;;33.38;20.00
77171;BME280;66144;50.020;14.422;2023-07-08T11:49:23;99196.06;;;33.52;20.67
77171;BME280;66144;50.020;14.422;2023-07-08T11:51:48;99203.44;;;33.59;19.88
77171;BME280;66144;50.020;14.422;2023-07-08T11:54:27;99198.81;;;33.38;20.25
77171;BME280;66144;50.020;14.422;2023-07-08T11:57:06;99194.56;;;33.37;19.84
77171;BME280;66144;50.020;14.422;2023-07-08T11:59:37;99198.41;;;33.43;20.13
77171;BME280;66144;50.020;14.422;2023-07-08T12:04:59;99187.56;;;33.15;19.77
77171;BME280;66144;50.020;14.422;2023-07-08T12:07:41;99186.78;;;33.11;20.45
77171;BME280;66144;50.020;14.422;2023-07-08T12:12:42;99176.38;;;33.45;20.22
77171;BME280;66144;50.020;14.422;2023-07-08T12:15:26;99168.22;;;33.59;19.52
77171;BME280;66144;50.020;14.422;2023-07-08T12:17:55;99171.31;;;33.50;20.88
77171;BME280;66144;50.020;14.422;2023-07-08T12:20:31;99168.97;;;33.52;19.95
77171;BME280;66144;50.020;14.422;2023-07-08T12:22:57;99169.78;;;33.39;20.39
77171;BME280;66144;50.020;14.422;2023-07-08T12:25:26;99170.56;;;33.32;20.42
77171;BME280;66144;50.020;14.422;2023-07-08T12:27:52;99161.66;;;33.21;20.38
77171;BME280;66144;50.020;14.422;2023-07-08T12:30:17;99169.00;;;33.03;19.78
77171;BME280;66144;50.020;14.422;2023-07-08T12:32:44;99161.25;;;33.01;20.50
77171;BME280;66144;50.020;14.422;2023-07-08T12:35:19;99166.28;;;33.03;20.16
77171;BME280;66144;50.020;14.422;2023-07-08T12:37:46;99157.75;;;33.11;20.43
77171;BME280;66144;50.020;14.422;2023-07-08T12:40:12;99153.91;;;33.19;21.05
77171;BME280;66144;50.020;14.422;2023-07-08T12:42:38;99158.56;;;33.05;20.87
77171;BME280;66144;50.020;14.422;2023-07-08T12:45:13;99159.69;;;32.97;20.56
77171;BME280;66144;50.020;14.422;2023-07-08T12:47:39;99175.19;;;33.00;20.93
77171;BME280;66144;50.020;14.422;2023-07-08T12:50:04;99165.13;;;33.07;19.89
77171;BME280;66144;50.020;14.422;2023-07-08T12:52:30;99167.06;;;33.00;20.19
77171;BME280;66144;50.020;14.422;2023-07-08T12:54:55;99165.09;;;32.93;20.28
77171;BME280;66144;50.020;14.422;2023-07-08T12:57:21;99155.84;;;33.08;20.76
77171;BME280;66144;50.020;14.422;2023-07-08T12:59:46;99157.78;;;33.01;19.79
77171;BME280;66144;50.020;14.422;2023-07-08T13:02:20;99148.13;;;33.03;20.65
77171;BME280;66144;50.020;14.422;2023-07-08T13:04:51;99150.03;;;32.95;19.90
77171;BME280;66144;50.020;14.422;2023-07-08T13:07:36;99149.28;;;33.09;20.56
77171;BME280;66144;50.020;14.422;2023-07-08T13:10:04;99152.38;;;33.01;20.58
77171;BME280;66144;50.020;14.422;2023-07-08T13:12:32;99147.31;;;32.74;20.19
77171;BME280;66144;50.020;14.422;2023-07-08T13:15:01;99146.56;;;32.84;20.46
77171;BME280;66144;50.020;14.422;2023-07-08T13:17:27;99150.03;;;32.95;20.49
77171;BME280;66144;50.020;14.422;2023-07-08T13:19:53;99146.47;;;32.52;22.14
77171;BME280;66144;50.020;14.422;2023-07-08T13:22:21;99144.56;;;32.64;22.25
77171;BME280;66144;50.020;14.422;2023-07-08T13:24:48;99143.44;;;32.68;21.21
77171;BME280;66144;50.020;14.422;2023-07-08T13:27:22;99146.53;;;32.74;21.75
77171;BME280;66144;50.020;14.422;2023-07-08T13:29:48;99138.41;;;32.77;21.83
77171;BME280;66144;50.020;14.422;2023-07-08T13:32:13;99135.31;;;32.68;21.21
77171;BME280;66144;50.020;14.422;2023-07-08T13:34:40;99134.53;;;32.64;21.58
77171;BME280;66144;50.020;14.422;2023-07-08T13:37:10;99133.00;;;32.70;22.04
77171;BME280;66144;50.020;14.422;2023-07-08T13:39:37;99137.25;;;32.78;22.81
77171;BME280;66144;50.020;14.422;2023-07-08T13:42:03;99130.28;;;32.74;22.29
77171;BME280;66144;50.020;14.422;2023-07-08T13:44:31;99119.44;;;32.67;21.70
77171;BME280;66144;50.020;14.422;2023-07-08T13:46:58;99130.66;;;32.65;21.11
77171;BME280;66144;50.020;14.422;2023-07-08T13:49:25;99128.66;;;32.41;20.74
77171;BME280;66144;50.020;14.422;2023-07-08T13:52:13;99126.41;;;32.68;21.94
77171;BME280;66144;50.020;14.422;2023-07-08T13:54:48;99124.88;;;32.77;21.85
77171;BME280;66144;50.020;14.422;2023-07-08T13:57:20;99124.91;;;32.81;21.44